sensor_id;sensor_type;location;lat;lon;timestamp;pressure;altitude;pressure_sealevel;temperature;humidity
36254;BME280;22291;52.250;21.228;2024-03-17T00:01:03;100272.66;;;6.02;97.24
36254;BME280;22291;52.250;21.228;2024-03-17T00:03:32;100271.59;;;5.97;97.22
36254;BME280;22291;52.250;21.228;2024-03-17T00:06:00;100269.47;;;5.94;97.17
36254;BME280;22291;52.250;21.228;2024-03-17T00:08:29;100271.08;;;5.90;96.65
36254;BME280;22291;52.250;21.228;2024-03-17T00:10:55;100277.00;;;5.87;96.37
36254;BME280;22291;52.250;21.228;2024-03-17T00:13:25;100270.32;;;5.85;96.42
36254;BME280;22291;52.250;21.228;2024-03-17T00:15:53;100262.81;;;5.84;96.61
36254;BME280;22291;52.250;21.228;2024-03-17T00:18:19;100275.72;;;5.79;96.11
36254;BME280;22291;52.250;21.228;2024-03-17T00:20:45;100275.20;;;5.77;95.93
36254;BME280;22291;52.250;21.228;2024-03-17T00:23:11;100272.27;;;5.74;95.25
36254;BME280;22291;52.250;21.228;2024-03-17T00:25:40;100281.39;;;5.70;95.01
36254;BME280;22291;52.250;21.228;2024-03-17T00:28:08;100290.26;;;5.68;95.17
36254;BME280;22291;52.250;21.228;2024-03-17T00:30:34;100293.22;;;5.67;94.85
36254;BME280;22291;52.250;21.228;2024-03-17T00:33:03;100297.27;;;5.64;94.45
36254;BME280;22291;52.250;21.228;2024-03-17T00:35:30;100299.95;;;5.61;94.03
36254;BME280;22291;52.250;21.228;2024-03-17T00:37:57;100297.56;;;5.57;93.76
36254;BME280;22291;52.250;21.228;2024-03-17T00:40:25;100305.06;;;5.58;94.10
36254;BME280;22291;52.250;21.228;2024-03-17T00:42:52;100305.34;;;5.56;93.70
36254;BME280;22291;52.250;21.228;2024-03-17T00:45:21;100310.19;;;5.57;93.93
36254;BME280;22291;52.250;21.228;2024-03-17T00:47:49;100299.97;;;5.56;93.55
36254;BME280;22291;52.250;21.228;2024-03-17T00:50:16;100308.30;;;5.55;93.20
36254;BME280;22291;52.250;21.228;2024-03-17T00:52:44;100305.88;;;5.53;92.76
36254;BME280;22291;52.250;21.228;2024-03-17T00:55:10;100305.88;;;5.53;92.00
36254;BME280;22291;52.250;21.228;2024-03-17T00:57:36;100310.48;;;5.50;91.60
36254;BME280;22291;52.250;21.228;2024-03-17T01:00:07;100311.57;;;5.47;91.48
36254;BME280;22291;52.250;21.228;2024-03-17T01:02:42;100313.19;;;5.45;90.54
36254;BME280;22291;52.250;21.228;2024-03-17T01:05:10;100306.73;;;5.41;89.78
36254;BME280;22291;52.250;21.228;2024-03-17T01:07:38;100311.30;;;5.38;88.88
36254;BME280;22291;52.250;21.228;2024-03-17T01:10:07;100307.30;;;5.35;89.06
36254;BME280;22291;52.250;21.228;2024-03-17T01:12:35;100311.32;;;5.33;88.75
36254;BME280;22291;52.250;21.228;2024-03-17T01:15:07;100316.98;;;5.29;86.82
36254;BME280;22291;52.250;21.228;2024-03-17T01:17:36;100314.32;;;5.26;86.41
36254;BME280;22291;52.250;21.228;2024-03-17T01:20:05;100316.99;;;5.23;86.19
36254;BME280;22291;52.250;21.228;2024-03-17T01:22:32;100315.37;;;5.22;85.65
36254;BME280;22291;52.250;21.228;2024-03-17T01:24:58;100323.17;;;5.21;85.47
36254;BME280;22291;52.250;21.228;2024-03-17T01:27:25;100317.53;;;5.20;86.34
36254;BME280;22291;52.250;21.228;2024-03-17T01:29:51;100316.46;;;5.19;85.30
36254;BME280;22291;52.250;21.228;2024-03-17T01:32:17;100318.34;;;5.18;85.29
36254;BME280;22291;52.250;21.228;2024-03-17T01:34:47;100319.16;;;5.14;84.50
36254;BME280;22291;52.250;21.228;2024-03-17T01:37:13;100326.67;;;5.12;84.98
36254;BME280;22291;52.250;21.228;2024-03-17T01:39:39;100334.98;;;5.10;85.09
36254;BME280;22291;52.250;21.228;2024-03-17T01:42:07;100333.38;;;5.07;84.76
36254;BME280;22291;52.250;21.228;2024-03-17T01:44:34;100337.95;;;5.03;84.49
36254;BME280;22291;52.250;21.228;2024-03-17T01:47:01;100338.48;;;5.00;83.81
36254;BME280;22291;52.250;21.228;2024-03-17T01:49:31;100337.97;;;4.96;83.46
36254;BME280;22291;52.250;21.228;2024-03-17T01:51:57;100337.42;;;4.91;83.55
36254;BME280;22291;52.250;21.228;2024-03-17T01:54:23;100336.89;;;4.86;83.18
36254;BME280;22291;52.250;21.228;2024-03-17T01:56:49;100337.72;;;4.82;82.73
36254;BME280;22291;52.250;21.228;2024-03-17T01:59:16;100342.53;;;4.77;82.75
36254;BME280;22291;52.250;21.228;2024-03-17T02:01:42;100343.06;;;4.74;82.77
36254;BME280;22291;52.250;21.228;2024-03-17T02:04:08;100351.12;;;4.72;83.14
36254;BME280;22291;52.250;21.228;2024-03-17T02:06:36;100354.33;;;4.68;82.85
36254;BME280;22291;52.250;21.228;2024-03-17T02:09:03;100348.97;;;4.63;82.35
36254;BME280;22291;52.250;21.228;2024-03-17T02:11:31;100361.82;;;4.59;82.22
36254;BME280;22291;52.250;21.228;2024-03-17T02:14:01;100357.53;;;4.55;82.15
36254;BME280;22291;52.250;21.228;2024-03-17T02:16:28;100358.61;;;4.52;81.73
36254;BME280;22291;52.250;21.228;2024-03-17T02:18:58;100354.59;;;4.46;82.25
36254;BME280;22291;52.250;21.228;2024-03-17T02:21:27;100365.02;;;4.45;82.28
36254;BME280;22291;52.250;21.228;2024-03-17T02:23:55;100356.17;;;4.42;82.49
36254;BME280;22291;52.250;21.228;2024-03-17T02:26:24;100372.23;;;4.42;82.82
36254;BME280;22291;52.250;21.228;2024-03-17T02:28:53;100365.30;;;4.41;82.86
36254;BME280;22291;52.250;21.228;2024-03-17T02:31:19;100361.53;;;4.40;82.96
36254;BME280;22291;52.250;21.228;2024-03-17T02:33:49;100358.58;;;4.39;82.96
36254;BME280;22291;52.250;21.228;2024-03-17T02:36:15;100360.98;;;4.35;82.99
36254;BME280;22291;52.250;21.228;2024-03-17T02:38:45;100360.45;;;4.36;83.26
36254;BME280;22291;52.250;21.228;2024-03-17T02:41:30;100363.38;;;4.34;83.07
36254;BME280;22291;52.250;21.228;2024-03-17T02:43:56;100364.45;;;4.30;82.84
36254;BME280;22291;52.250;21.228;2024-03-17T02:46:23;100366.59;;;4.28;83.09
36254;BME280;22291;52.250;21.228;2024-03-17T02:48:52;100362.84;;;4.27;83.15
36254;BME280;22291;52.250;21.228;2024-03-17T02:51:22;100363.92;;;4.26;83.26
36254;BME280;22291;52.250;21.228;2024-03-17T02:53:50;100367.95;;;4.26;83.27
36254;BME280;22291;52.250;21.228;2024-03-17T02:56:20;100373.28;;;4.23;83.23
36254;BME280;22291;52.250;21.228;2024-03-17T02:58:48;100383.98;;;4.23;83.69
36254;BME280;22291;52.250;21.228;2024-03-17T03:01:16;100383.20;;;4.23;83.41
36254;BME280;22291;52.250;21.228;2024-03-17T03:03:45;100385.59;;;4.19;82.95
36254;BME280;22291;52.250;21.228;2024-03-17T03:06:15;100384.22;;;4.11;82.69
36254;BME280;22291;52.250;21.228;2024-03-17T03:08:43;100385.00;;;4.07;82.36
36254;BME280;22291;52.250;21.228;2024-03-17T03:11:11;100382.31;;;4.02;82.47
36254;BME280;22291;52.250;21.228;2024-03-17T03:13:43;100387.39;;;3.98;82.35
36254;BME280;22291;52.250;21.228;2024-03-17T03:16:13;100382.56;;;3.92;82.43
36254;BME280;22291;52.250;21.228;2024-03-17T03:18:41;100379.58;;;3.86;82.33
36254;BME280;22291;52.250;21.228;2024-03-17T03:21:12;100391.34;;;3.80;82.35
36254;BME280;22291;52.250;21.228;2024-03-17T03:23:38;100387.56;;;3.76;82.37
36254;BME280;22291;52.250;21.228;2024-03-17T03:26:07;100387.83;;;3.72;82.30
36254;BME280;22291;52.250;21.228;2024-03-17T03:28:37;100388.60;;;3.67;82.32
36254;BME280;22291;52.250;21.228;2024-03-17T03:31:05;100390.74;;;3.63;82.30
36254;BME280;22291;52.250;21.228;2024-03-17T03:33:34;100393.93;;;3.60;82.32
36254;BME280;22291;52.250;21.228;2024-03-17T03:36:07;100392.82;;;3.55;82.40
36254;BME280;22291;52.250;21.228;2024-03-17T03:38:34;100391.23;;;3.54;82.57
36254;BME280;22291;52.250;21.228;2024-03-17T03:41:09;100388.27;;;3.51;82.46
36254;BME280;22291;52.250;21.228;2024-03-17T03:43:37;100386.39;;;3.51;82.84
36254;BME280;22291;52.250;21.228;2024-03-17T03:46:06;100387.44;;;3.50;82.93
36254;BME280;22291;52.250;21.228;2024-03-17T03:48:36;100385.34;;;3.52;82.84
36254;BME280;22291;52.250;21.228;2024-03-17T03:51:08;100387.73;;;3.54;83.21
36254;BME280;22291;52.250;21.228;2024-03-17T03:53:38;100386.67;;;3.55;83.02
36254;BME280;22291;52.250;21.228;2024-03-17T03:56:08;100389.35;;;3.55;82.83
36254;BME280;22291;52.250;21.228;2024-03-17T03:58:38;100385.87;;;3.54;82.69
36254;BME280;22291;52.250;21.228;2024-03-17T04:01:11;100387.22;;;3.54;82.83
36254;BME280;22291;52.250;21.228;2024-03-17T04:03:40;100390.94;;;3.53;82.76
36254;BME280;22291;52.250;21.228;2024-03-17T04:06:10;100395.21;;;3.52;82.59
36254;BME280;22291;52.250;21.228;2024-03-17T04:08:38;100391.20;;;3.49;82.37
36254;BME280;22291;52.250;21.228;2024-03-17T04:11:09;100389.58;;;3.46;82.39
36254;BME280;22291;52.250;21.228;2024-03-17T04:13:37;100389.55;;;3.43;82.37
36254;BME280;22291;52.250;21.228;2024-03-17T04:16:08;100391.14;;;3.39;82.12
36254;BME280;22291;52.250;21.228;2024-03-17T04:18:36;100390.31;;;3.39;82.52
36254;BME280;22291;52.250;21.228;2024-03-17T04:21:07;100394.07;;;3.38;82.62
36254;BME280;22291;52.250;21.228;2024-03-17T04:23:35;100390.86;;;3.35;82.69
36254;BME280;22291;52.250;21.228;2024-03-17T04:26:05;100396.46;;;3.34;82.93
36254;BME280;22291;52.250;21.228;2024-03-17T04:28:35;100392.70;;;3.32;82.80
36254;BME280;22291;52.250;21.228;2024-03-17T04:31:08;100394.02;;;3.30;82.82
36254;BME280;22291;52.250;21.228;2024-03-17T04:33:36;100395.09;;;3.29;82.95
36254;BME280;22291;52.250;21.228;2024-03-17T04:36:05;100398.53;;;3.27;83.01
36254;BME280;22291;52.250;21.228;2024-03-17T04:38:34;100399.33;;;3.25;83.17
36254;BME280;22291;52.250;21.228;2024-03-17T04:41:06;100400.66;;;3.25;83.27
36254;BME280;22291;52.250;21.228;2024-03-17T04:43:34;100398.53;;;3.24;83.64
36254;BME280;22291;52.250;21.228;2024-03-17T04:46:04;100402.00;;;3.25;83.82
36254;BME280;22291;52.250;21.228;2024-03-17T04:48:33;100395.06;;;3.26;84.00
36254;BME280;22291;52.250;21.228;2024-03-17T04:51:01;100392.13;;;3.28;84.24
36254;BME280;22291;52.250;21.228;2024-03-17T04:53:29;100393.50;;;3.30;84.41
36254;BME280;22291;52.250;21.228;2024-03-17T04:58:33;100400.22;;;3.38;84.54
36254;BME280;22291;52.250;21.228;2024-03-17T05:01:09;100395.95;;;3.40;84.56
36254;BME280;22291;52.250;21.228;2024-03-17T05:03:38;100398.11;;;3.43;84.42
36254;BME280;22291;52.250;21.228;2024-03-17T05:06:06;100395.72;;;3.46;84.30
36254;BME280;22291;52.250;21.228;2024-03-17T05:08:35;100404.58;;;3.49;84.23
36254;BME280;22291;52.250;21.228;2024-03-17T05:11:03;100402.72;;;3.52;84.21
36254;BME280;22291;52.250;21.228;2024-03-17T05:13:35;100398.71;;;3.55;84.07
36254;BME280;22291;52.250;21.228;2024-03-17T05:16:05;100397.91;;;3.57;83.88
36254;BME280;22291;52.250;21.228;2024-03-17T05:18:32;100393.93;;;3.60;83.95
36254;BME280;22291;52.250;21.228;2024-03-17T05:21:05;100396.60;;;3.62;83.16
36254;BME280;22291;52.250;21.228;2024-03-17T05:23:34;100401.44;;;3.65;83.47
36254;BME280;22291;52.250;21.228;2024-03-17T05:26:04;100403.31;;;3.67;83.25
36254;BME280;22291;52.250;21.228;2024-03-17T05:28:31;100396.11;;;3.70;83.16
36254;BME280;22291;52.250;21.228;2024-03-17T05:30:57;100405.50;;;3.76;83.41
36254;BME280;22291;52.250;21.228;2024-03-17T05:33:27;100401.77;;;3.77;82.78
36254;BME280;22291;52.250;21.228;2024-03-17T05:35:57;100402.84;;;3.81;83.03
36254;BME280;22291;52.250;21.228;2024-03-17T05:38:27;100402.62;;;3.85;83.29
36254;BME280;22291;52.250;21.228;2024-03-17T05:40:58;100407.97;;;3.87;82.87
36254;BME280;22291;52.250;21.228;2024-03-17T05:43:30;100403.97;;;3.92;82.93
36254;BME280;22291;52.250;21.228;2024-03-17T05:46:12;100403.17;;;3.95;82.90
36254;BME280;22291;52.250;21.228;2024-03-17T05:48:39;100401.31;;;3.98;82.30
36254;BME280;22291;52.250;21.228;2024-03-17T05:51:11;100407.74;;;4.02;82.46
36254;BME280;22291;52.250;21.228;2024-03-17T05:53:42;100404.03;;;4.05;82.28
36254;BME280;22291;52.250;21.228;2024-03-17T05:56:13;100408.31;;;4.11;82.37
36254;BME280;22291;52.250;21.228;2024-03-17T05:58:43;100407.54;;;4.16;82.89
36254;BME280;22291;52.250;21.228;2024-03-17T06:01:09;100413.73;;;4.24;83.17
36254;BME280;22291;52.250;21.228;2024-03-17T06:03:40;100402.20;;;4.29;82.70
36254;BME280;22291;52.250;21.228;2024-03-17T06:06:09;100416.69;;;4.36;83.00
36254;BME280;22291;52.250;21.228;2024-03-17T06:08:40;100415.36;;;4.41;83.30
36254;BME280;22291;52.250;21.228;2024-03-17T06:11:06;100416.70;;;4.46;83.01
36254;BME280;22291;52.250;21.228;2024-03-17T06:13:36;100408.95;;;4.47;82.71
36254;BME280;22291;52.250;21.228;2024-03-17T06:16:04;100411.37;;;4.56;82.09
36254;BME280;22291;52.250;21.228;2024-03-17T06:18:32;100414.05;;;4.61;81.68
36254;BME280;22291;52.250;21.228;2024-03-17T06:20:59;100412.45;;;4.63;81.01
36254;BME280;22291;52.250;21.228;2024-03-17T06:23:26;100402.81;;;4.70;81.04
36254;BME280;22291;52.250;21.228;2024-03-17T06:25:56;100408.45;;;4.89;80.73
36254;BME280;22291;52.250;21.228;2024-03-17T06:28:23;100413.55;;;5.08;81.75
36254;BME280;22291;52.250;21.228;2024-03-17T06:30:58;100419.45;;;5.28;81.10
36254;BME280;22291;52.250;21.228;2024-03-17T06:33:28;100417.02;;;5.37;80.71
36254;BME280;22291;52.250;21.228;2024-03-17T06:35:55;100417.00;;;5.42;79.60
36254;BME280;22291;52.250;21.228;2024-03-17T06:38:23;100419.67;;;5.45;79.14
36254;BME280;22291;52.250;21.228;2024-03-17T06:40:51;100432.28;;;5.49;79.01
36254;BME280;22291;52.250;21.228;2024-03-17T06:43:21;100421.01;;;5.52;78.67
36254;BME280;22291;52.250;21.228;2024-03-17T06:45:59;100432.27;;;5.54;77.68
36254;BME280;22291;52.250;21.228;2024-03-17T06:48:30;100424.23;;;5.52;77.35
36254;BME280;22291;52.250;21.228;2024-03-17T06:50:56;100416.17;;;5.54;77.74
36254;BME280;22291;52.250;21.228;2024-03-17T06:53:24;100424.99;;;5.68;78.08
36254;BME280;22291;52.250;21.228;2024-03-17T06:55:59;100410.22;;;5.73;75.63
36254;BME280;22291;52.250;21.228;2024-03-17T06:58:28;100411.00;;;5.81;75.70
36254;BME280;22291;52.250;21.228;2024-03-17T07:00:58;100424.91;;;5.93;76.32
36254;BME280;22291;52.250;21.228;2024-03-17T07:03:31;100421.16;;;5.94;74.20
36254;BME280;22291;52.250;21.228;2024-03-17T07:06:01;100424.11;;;5.93;75.19
36254;BME280;22291;52.250;21.228;2024-03-17T07:08:31;100418.47;;;5.92;74.80
36254;BME280;22291;52.250;21.228;2024-03-17T07:11:00;100417.40;;;5.90;74.54
36254;BME280;22291;52.250;21.228;2024-03-17T07:13:37;100423.31;;;5.90;73.53
36254;BME280;22291;52.250;21.228;2024-03-17T07:16:08;100428.16;;;5.88;73.78
36254;BME280;22291;52.250;21.228;2024-03-17T07:18:37;100433.53;;;5.88;74.40
36254;BME280;22291;52.250;21.228;2024-03-17T07:21:07;100430.30;;;5.88;73.46
36254;BME280;22291;52.250;21.228;2024-03-17T07:23:37;100435.14;;;5.84;73.51
36254;BME280;22291;52.250;21.228;2024-03-17T07:26:05;100429.26;;;5.76;73.28
36254;BME280;22291;52.250;21.228;2024-03-17T07:28:33;100433.28;;;5.76;73.46
36254;BME280;22291;52.250;21.228;2024-03-17T07:30:59;100437.56;;;5.80;73.14
36254;BME280;22291;52.250;21.228;2024-03-17T07:33:27;100439.42;;;5.87;74.64
36254;BME280;22291;52.250;21.228;2024-03-17T07:35:56;100444.77;;;5.95;74.78
36254;BME280;22291;52.250;21.228;2024-03-17T07:38:28;100442.09;;;5.95;73.30
36254;BME280;22291;52.250;21.228;2024-03-17T07:41:01;100438.86;;;5.95;73.11
36254;BME280;22291;52.250;21.228;2024-03-17T07:43:34;100443.99;;;6.00;73.93
36254;BME280;22291;52.250;21.228;2024-03-17T07:46:06;100447.20;;;6.02;72.21
36254;BME280;22291;52.250;21.228;2024-03-17T07:48:39;100443.19;;;5.96;72.91
36254;BME280;22291;52.250;21.228;2024-03-17T07:51:10;100440.23;;;5.98;72.38
36254;BME280;22291;52.250;21.228;2024-03-17T07:53:41;100445.08;;;5.96;72.59
36254;BME280;22291;52.250;21.228;2024-03-17T07:56:19;100441.30;;;5.97;72.67
36254;BME280;22291;52.250;21.228;2024-03-17T07:58:46;100440.73;;;6.03;73.55
36254;BME280;22291;52.250;21.228;2024-03-17T08:01:20;100442.85;;;6.11;73.48
36254;BME280;22291;52.250;21.228;2024-03-17T08:03:50;100435.57;;;6.19;73.76
36254;BME280;22291;52.250;21.228;2024-03-17T08:06:18;100435.28;;;6.28;73.86
36254;BME280;22291;52.250;21.228;2024-03-17T08:08:44;100440.87;;;6.37;72.61
36254;BME280;22291;52.250;21.228;2024-03-17T08:11:14;100439.22;;;6.44;72.76
36254;BME280;22291;52.250;21.228;2024-03-17T08:13:44;100451.02;;;6.48;72.21
36254;BME280;22291;52.250;21.228;2024-03-17T08:16:12;100439.19;;;6.49;71.97
36254;BME280;22291;52.250;21.228;2024-03-17T08:18:40;100439.71;;;6.51;72.56
36254;BME280;22291;52.250;21.228;2024-03-17T08:21:07;100435.89;;;6.60;73.05
36254;BME280;22291;52.250;21.228;2024-03-17T08:23:35;100438.52;;;6.67;72.09
36254;BME280;22291;52.250;21.228;2024-03-17T08:26:08;100435.55;;;6.69;71.67
36254;BME280;22291;52.250;21.228;2024-03-17T08:28:35;100432.34;;;6.69;72.12
36254;BME280;22291;52.250;21.228;2024-03-17T08:31:05;100439.83;;;6.75;71.95
36254;BME280;22291;52.250;21.228;2024-03-17T08:33:34;100441.92;;;6.83;72.12
36254;BME280;22291;52.250;21.228;2024-03-17T08:36:06;100440.55;;;6.88;71.98
36254;BME280;22291;52.250;21.228;2024-03-17T08:38:36;100435.12;;;6.91;71.29
36254;BME280;22291;52.250;21.228;2024-03-17T08:41:06;100431.41;;;6.87;70.76
36254;BME280;22291;52.250;21.228;2024-03-17T08:43:37;100428.45;;;6.86;71.02
36254;BME280;22291;52.250;21.228;2024-03-17T08:46:09;100425.75;;;6.86;69.20
36254;BME280;22291;52.250;21.228;2024-03-17T08:48:41;100426.03;;;6.84;70.90
36254;BME280;22291;52.250;21.228;2024-03-17T08:51:09;100428.20;;;6.85;70.81
36254;BME280;22291;52.250;21.228;2024-03-17T08:53:39;100431.13;;;6.86;70.05
36254;BME280;22291;52.250;21.228;2024-03-17T08:56:07;100434.89;;;6.87;70.17
36254;BME280;22291;52.250;21.228;2024-03-17T08:58:34;100437.58;;;6.87;69.74
36254;BME280;22291;52.250;21.228;2024-03-17T09:01:07;100431.17;;;6.81;68.97
36254;BME280;22291;52.250;21.228;2024-03-17T09:03:37;100428.23;;;6.80;70.16
36254;BME280;22291;52.250;21.228;2024-03-17T09:06:16;100430.92;;;6.80;70.28
36254;BME280;22291;52.250;21.228;2024-03-17T09:08:46;100437.92;;;6.78;69.99
36254;BME280;22291;52.250;21.228;2024-03-17T09:11:14;100439.00;;;6.80;70.42
36254;BME280;22291;52.250;21.228;2024-03-17T09:13:44;100449.95;;;6.86;70.30
36254;BME280;22291;52.250;21.228;2024-03-17T09:16:15;100433.02;;;6.88;69.59
36254;BME280;22291;52.250;21.228;2024-03-17T09:18:43;100449.71;;;6.85;68.83
36254;BME280;22291;52.250;21.228;2024-03-17T09:21:09;100445.96;;;6.81;69.50
36254;BME280;22291;52.250;21.228;2024-03-17T09:23:40;100436.31;;;6.77;68.04
36254;BME280;22291;52.250;21.228;2024-03-17T09:26:20;100438.00;;;6.68;68.47
36254;BME280;22291;52.250;21.228;2024-03-17T09:28:46;100438.86;;;6.58;68.54
36254;BME280;22291;52.250;21.228;2024-03-17T09:31:16;100442.41;;;6.48;68.64
36254;BME280;22291;52.250;21.228;2024-03-17T09:33:51;100443.53;;;6.42;69.15
36254;BME280;22291;52.250;21.228;2024-03-17T09:36:20;100442.76;;;6.34;69.17
36254;BME280;22291;52.250;21.228;2024-03-17T09:38:48;100441.17;;;6.30;69.23
36254;BME280;22291;52.250;21.228;2024-03-17T09:41:22;100441.44;;;6.26;70.10
36254;BME280;22291;52.250;21.228;2024-03-17T09:43:55;100445.49;;;6.21;70.20
36254;BME280;22291;52.250;21.228;2024-03-17T09:46:27;100459.80;;;6.11;70.51
36254;BME280;22291;52.250;21.228;2024-03-17T09:48:57;100458.48;;;6.01;70.73
36254;BME280;22291;52.250;21.228;2024-03-17T09:51:25;100454.18;;;5.87;70.66
36254;BME280;22291;52.250;21.228;2024-03-17T09:53:53;100455.58;;;5.74;71.19
36254;BME280;22291;52.250;21.228;2024-03-17T09:56:21;100451.56;;;5.69;72.11
36254;BME280;22291;52.250;21.228;2024-03-17T09:58:50;100451.56;;;5.69;71.91
36254;BME280;22291;52.250;21.228;2024-03-17T10:01:20;100449.95;;;5.68;71.84
36254;BME280;22291;52.250;21.228;2024-03-17T10:03:50;100452.37;;;5.72;72.47
36254;BME280;22291;52.250;21.228;2024-03-17T10:06:23;100458.77;;;5.82;72.78
36254;BME280;22291;52.250;21.228;2024-03-17T10:08:57;100458.75;;;5.94;72.68
36254;BME280;22291;52.250;21.228;2024-03-17T10:11:36;100454.14;;;6.08;72.73
36254;BME280;22291;52.250;21.228;2024-03-17T10:14:06;100457.86;;;6.20;72.46
36254;BME280;22291;52.250;21.228;2024-03-17T10:16:37;100459.97;;;6.28;72.06
36254;BME280;22291;52.250;21.228;2024-03-17T10:19:09;100453.73;;;6.40;72.35
36254;BME280;22291;52.250;21.228;2024-03-17T10:21:47;100454.19;;;6.55;71.98
36254;BME280;22291;52.250;21.228;2024-03-17T10:24:25;100450.34;;;6.69;72.73
36254;BME280;22291;52.250;21.228;2024-03-17T10:26:57;100448.89;;;6.84;71.44
36254;BME280;22291;52.250;21.228;2024-03-17T10:29:33;100450.50;;;6.85;69.51
36254;BME280;22291;52.250;21.228;2024-03-17T10:32:13;100446.47;;;6.85;69.18
36254;BME280;22291;52.250;21.228;2024-03-17T10:34:40;100455.09;;;6.85;69.52
36254;BME280;22291;52.250;21.228;2024-03-17T10:37:11;100450.23;;;6.84;69.50
36254;BME280;22291;52.250;21.228;2024-03-17T10:39:50;100454.85;;;6.81;69.16
36254;BME280;22291;52.250;21.228;2024-03-17T10:42:27;100459.75;;;6.69;68.80
36254;BME280;22291;52.250;21.228;2024-03-17T10:44:58;100451.20;;;6.62;69.04
36254;BME280;22291;52.250;21.228;2024-03-17T10:47:28;100447.20;;;6.57;69.41
36254;BME280;22291;52.250;21.228;2024-03-17T10:49:59;100456.63;;;6.54;68.90
36254;BME280;22291;52.250;21.228;2024-03-17T10:52:32;100457.76;;;6.45;69.04
36254;BME280;22291;52.250;21.228;2024-03-17T10:55:07;100451.61;;;6.34;68.75
36254;BME280;22291;52.250;21.228;2024-03-17T10:57:46;100442.51;;;6.28;69.08
36254;BME280;22291;52.250;21.228;2024-03-17T11:00:21;100444.97;;;6.19;69.51
36254;BME280;22291;52.250;21.228;2024-03-17T11:02:55;100454.42;;;6.11;69.57
36254;BME280;22291;52.250;21.228;2024-03-17T11:05:27;100451.48;;;5.95;69.76
36254;BME280;22291;52.250;21.228;2024-03-17T11:07:59;100454.46;;;5.88;70.53
36254;BME280;22291;52.250;21.228;2024-03-17T11:10:33;100451.80;;;5.86;71.12
36254;BME280;22291;52.250;21.228;2024-03-17T11:13:04;100451.79;;;5.83;71.66
36254;BME280;22291;52.250;21.228;2024-03-17T11:20:56;100439.98;;;5.82;72.57
36254;BME280;22291;52.250;21.228;2024-03-17T11:23:21;100450.20;;;5.79;72.96
36254;BME280;22291;52.250;21.228;2024-03-17T11:25:54;100447.25;;;5.73;72.87
36254;BME280;22291;52.250;21.228;2024-03-17T11:31:37;100460.68;;;5.68;73.34
36254;BME280;22291;52.250;21.228;2024-03-17T11:34:37;100464.72;;;5.58;73.67
36254;BME280;22291;52.250;21.228;2024-03-17T11:37:05;100454.28;;;5.49;74.54
36254;BME280;22291;52.250;21.228;2024-03-17T11:39:56;100459.65;;;5.41;75.49
36254;BME280;22291;52.250;21.228;2024-03-17T11:42:25;100446.51;;;5.34;76.18
36254;BME280;22291;52.250;21.228;2024-03-17T11:45:06;100453.22;;;5.34;76.74
36254;BME280;22291;52.250;21.228;2024-03-17T11:47:41;100453.23;;;5.37;77.25
36254;BME280;22291;52.250;21.228;2024-03-17T11:50:10;100459.13;;;5.41;77.58
36254;BME280;22291;52.250;21.228;2024-03-17T11:52:40;100458.05;;;5.45;77.25
36254;BME280;22291;52.250;21.228;2024-03-17T11:55:19;100454.28;;;5.46;77.40
36254;BME280;22291;52.250;21.228;2024-03-17T11:57:47;100454.28;;;5.46;77.35
36254;BME280;22291;52.250;21.228;2024-03-17T12:00:22;100458.03;;;5.48;77.15
36254;BME280;22291;52.250;21.228;2024-03-17T12:02:52;100472.79;;;5.48;77.26
36254;BME280;22291;52.250;21.228;2024-03-17T12:05:20;100479.78;;;5.43;77.11
36254;BME280;22291;52.250;21.228;2024-03-17T12:07:50;100481.92;;;5.34;77.27
36254;BME280;22291;52.250;21.228;2024-03-17T12:10:18;100477.91;;;5.23;77.75
36254;BME280;22291;52.250;21.228;2024-03-17T12:12:48;100476.02;;;5.14;78.48
36254;BME280;22291;52.250;21.228;2024-03-17T12:15:20;100472.54;;;5.08;78.58
36254;BME280;22291;52.250;21.228;2024-03-17T12:17:54;100465.05;;;5.08;79.27
36254;BME280;22291;52.250;21.228;2024-03-17T12:20:25;100455.91;;;5.14;79.98
36254;BME280;22291;52.250;21.228;2024-03-17T12:22:51;100459.68;;;5.23;79.98
36254;BME280;22291;52.250;21.228;2024-03-17T12:25:21;100464.23;;;5.30;79.88
36254;BME280;22291;52.250;21.228;2024-03-17T12:27:52;100453.48;;;5.38;79.62
36254;BME280;22291;52.250;21.228;2024-03-17T12:30:18;100452.42;;;5.47;79.45
36254;BME280;22291;52.250;21.228;2024-03-17T12:32:53;100456.44;;;5.52;78.92
36254;BME280;22291;52.250;21.228;2024-03-17T12:35:21;100453.20;;;5.57;78.60
36254;BME280;22291;52.250;21.228;2024-03-17T12:37:49;100448.88;;;5.69;78.82
36254;BME280;22291;52.250;21.228;2024-03-17T12:40:23;100454.20;;;5.82;78.43
36254;BME280;22291;52.250;21.228;2024-03-17T12:42:57;100445.59;;;5.90;78.01
36254;BME280;22291;52.250;21.228;2024-03-17T12:45:25;100445.29;;;6.07;78.29
36254;BME280;22291;52.250;21.228;2024-03-17T12:47:54;100440.92;;;6.27;78.00
36254;BME280;22291;52.250;21.228;2024-03-17T12:50:25;100436.56;;;6.39;75.96
36254;BME280;22291;52.250;21.228;2024-03-17T12:52:55;100450.22;;;6.45;75.64
36254;BME280;22291;52.250;21.228;2024-03-17T12:55:23;100438.95;;;6.43;73.85
36254;BME280;22291;52.250;21.228;2024-03-17T12:58:11;100444.90;;;6.37;73.67
36254;BME280;22291;52.250;21.228;2024-03-17T13:03:37;100440.92;;;6.24;74.51
36254;BME280;22291;52.250;21.228;2024-03-17T13:06:09;100444.95;;;6.27;74.77
36254;BME280;22291;52.250;21.228;2024-03-17T13:08:41;100441.69;;;6.30;75.03
36254;BME280;22291;52.250;21.228;2024-03-17T13:11:09;100447.03;;;6.35;74.74
36254;BME280;22291;52.250;21.228;2024-03-17T13:13:38;100439.00;;;6.32;74.79
36254;BME280;22291;52.250;21.228;2024-03-17T13:16:04;100453.23;;;6.35;74.25
36254;BME280;22291;52.250;21.228;2024-03-17T13:18:32;100450.00;;;6.39;74.70